Time;durP1;ratioP1;P1;durP2;ratioP2;P2;SDS_P1;SDS_P2;PMS_P1;PMS_P2;Temp;Humidity;BMP_temperature;BMP_pressure;BME280_temperature;BME280_humidity;BME280_pressure;Samples;Min_cycle;Max_cycle;Signal;HPM_P1;HPM_P2
2023/07/25 00:00:05;;;;;;;4.47;3.33;;;;;;;;;;5010032;28;20136;-68
2023/07/25 00:02:30;;;;;;;6.40;5.38;;;;;;;;;;5020384;28;20030;-67
2023/07/25 00:07:24;;;;;;;7.07;6.38;;;;;;;;;;5005973;28;20046;-64
2023/07/25 00:09:50;;;;;;;5.70;5.10;;;;;;;;;;5009846;28;20528;-64
2023/07/25 00:12:16;;;;;;;8.77;5.90;;;;;;;;;;5011036;28;20104;-63
2023/07/25 00:14:41;;;;;;;6.72;5.88;;;;;;;;;;5012595;28;20030;-61
2023/07/25 00:17:06;;;;;;;7.00;6.22;;;;;;;;;;5009687;28;20037;-63
2023/07/25 00:19:32;;;;;;;8.48;6.90;;;;;;;;;;5018159;28;20014;-63
2023/07/25 00:21:57;;;;;;;7.93;6.80;;;;;;;;;;5009793;28;20021;-64
2023/07/25 00:24:22;;;;;;;7.28;6.10;;;;;;;;;;5010654;28;20676;-63
2023/07/25 00:26:48;;;;;;;7.03;6.28;;;;;;;;;;5012135;28;20056;-64
2023/07/25 00:29:13;;;;;;;7.85;6.32;;;;;;;;;;5012439;28;20022;-63
2023/07/25 00:31:38;;;;;;;6.95;5.90;;;;;;;;;;5016167;28;20175;-63
2023/07/25 00:34:06;;;;;;;8.50;6.40;;;;;;;;;;5014126;28;20034;-63
2023/07/25 00:36:31;;;;;;;6.45;5.85;;;;;;;;;;5010004;28;20048;-62
2023/07/25 00:38:57;;;;;;;8.23;6.35;;;;;;;;;;5009051;28;20691;-63
2023/07/25 00:41:22;;;;;;;6.53;5.82;;;;;;;;;;5010475;28;20394;-63
2023/07/25 00:43:47;;;;;;;7.97;5.70;;;;;;;;;;5007787;28;20061;-64
2023/07/25 00:46:13;;;;;;;5.82;4.97;;;;;;;;;;5009470;28;20025;-62
2023/07/25 00:48:39;;;;;;;5.30;4.80;;;;;;;;;;5015841;28;20075;-63
2023/07/25 00:51:04;;;;;;;7.93;5.35;;;;;;;;;;5010250;28;20512;-63
2023/07/25 00:53:30;;;;;;;5.85;4.63;;;;;;;;;;5010002;28;20168;-64
2023/07/25 00:55:56;;;;;;;6.57;4.97;;;;;;;;;;5013229;28;20059;-63
2023/07/25 00:58:21;;;;;;;4.93;4.43;;;;;;;;;;5012558;28;20030;-63
2023/07/25 01:00:46;;;;;;;5.93;4.70;;;;;;;;;;5014297;28;20029;-64
2023/07/25 01:03:13;;;;;;;6.25;4.70;;;;;;;;;;5007687;28;20021;-63
2023/07/25 01:05:41;;;;;;;7.30;4.97;;;;;;;;;;5011753;28;20630;-62
2023/07/25 01:08:07;;;;;;;6.47;4.30;;;;;;;;;;5011132;28;20058;-63
2023/07/25 01:10:34;;;;;;;7.13;4.97;;;;;;;;;;5011516;28;20736;-63
2023/07/25 01:13:00;;;;;;;6.45;4.93;;;;;;;;;;5010771;28;20028;-63
2023/07/25 01:15:28;;;;;;;9.02;4.55;;;;;;;;;;5008510;28;20038;-63
2023/07/25 01:17:53;;;;;;;7.18;4.70;;;;;;;;;;5007806;28;20615;-63
2023/07/25 01:20:19;;;;;;;5.28;4.10;;;;;;;;;;5012532;28;20029;-64
2023/07/25 01:22:45;;;;;;;5.03;3.95;;;;;;;;;;5009915;28;20034;-64
2023/07/25 01:25:10;;;;;;;5.10;3.60;;;;;;;;;;5011128;28;20018;-63
2023/07/25 01:27:36;;;;;;;5.75;3.92;;;;;;;;;;5012757;28;20432;-63
2023/07/25 01:30:02;;;;;;;4.45;3.35;;;;;;;;;;5012068;28;20116;-62
2023/07/25 01:32:27;;;;;;;4.55;3.10;;;;;;;;;;5009038;28;20600;-63
2023/07/25 01:34:52;;;;;;;3.88;2.88;;;;;;;;;;5009257;28;20060;-64
2023/07/25 01:37:18;;;;;;;3.60;2.60;;;;;;;;;;5009199;28;20043;-64
2023/07/25 01:39:43;;;;;;;3.42;2.70;;;;;;;;;;5010323;28;20071;-64
2023/07/25 01:42:09;;;;;;;3.35;2.10;;;;;;;;;;5009933;28;20038;-64
2023/07/25 01:44:35;;;;;;;4.57;2.30;;;;;;;;;;5013826;28;20044;-63
2023/07/25 01:47:00;;;;;;;5.85;2.35;;;;;;;;;;5012207;28;20091;-64
2023/07/25 01:49:25;;;;;;;4.43;1.83;;;;;;;;;;5011098;28;20044;-64
2023/07/25 01:51:51;;;;;;;2.97;1.85;;;;;;;;;;5009831;28;20104;-65
2023/07/25 01:54:16;;;;;;;3.28;1.70;;;;;;;;;;5008530;28;20548;-65
2023/07/25 01:56:42;;;;;;;2.03;1.63;;;;;;;;;;5013721;28;20128;-65
2023/07/25 01:59:07;;;;;;;3.00;1.77;;;;;;;;;;5011731;28;20040;-64
2023/07/25 02:01:33;;;;;;;2.20;1.45;;;;;;;;;;5012307;28;20028;-65
2023/07/25 02:03:58;;;;;;;2.58;1.80;;;;;;;;;;5008902;28;20083;-64
2023/07/25 02:06:23;;;;;;;6.10;1.70;;;;;;;;;;5008847;28;20049;-64
2023/07/25 02:08:49;;;;;;;1.98;1.33;;;;;;;;;;5008996;28;20026;-64
2023/07/25 02:11:15;;;;;;;2.55;1.50;;;;;;;;;;5007339;28;20025;-65
2023/07/25 02:13:40;;;;;;;2.83;1.50;;;;;;;;;;5013060;28;20049;-64
2023/07/25 02:16:06;;;;;;;3.00;1.45;;;;;;;;;;5006607;28;20025;-64
2023/07/25 02:18:31;;;;;;;3.50;1.60;;;;;;;;;;5008067;28;20033;-63
2023/07/25 02:20:57;;;;;;;3.10;1.70;;;;;;;;;;5007313;28;20479;-64
2023/07/25 02:23:23;;;;;;;3.00;1.77;;;;;;;;;;5006643;28;20022;-64
2023/07/25 02:25:48;;;;;;;3.20;1.30;;;;;;;;;;5009502;28;20026;-64
2023/07/25 02:28:13;;;;;;;2.47;1.40;;;;;;;;;;5006764;28;20093;-63
2023/07/25 02:30:39;;;;;;;2.40;1.30;;;;;;;;;;5008211;28;20038;-64
2023/07/25 02:33:04;;;;;;;2.60;1.20;;;;;;;;;;5009370;28;20024;-63
2023/07/25 02:35:29;;;;;;;2.45;1.05;;;;;;;;;;5006754;28;20018;-63
2023/07/25 02:37:55;;;;;;;1.23;0.90;;;;;;;;;;5007804;28;20037;-62
2023/07/25 02:40:20;;;;;;;2.72;1.02;;;;;;;;;;5009959;28;20030;-64
2023/07/25 02:42:46;;;;;;;1.58;1.17;;;;;;;;;;5011207;28;20696;-63
2023/07/25 02:45:11;;;;;;;2.30;1.45;;;;;;;;;;5003859;28;20021;-64
2023/07/25 02:47:36;;;;;;;1.77;1.08;;;;;;;;;;5005765;28;20049;-65
2023/07/25 02:50:02;;;;;;;2.30;1.40;;;;;;;;;;5008222;28;20501;-64
2023/07/25 02:52:27;;;;;;;1.70;0.98;;;;;;;;;;5007912;28;20021;-65
2023/07/25 02:54:53;;;;;;;1.55;1.20;;;;;;;;;;5005266;28;20692;-64
2023/07/25 02:57:18;;;;;;;3.17;1.38;;;;;;;;;;5009476;28;20080;-64
2023/07/25 02:59:43;;;;;;;2.17;1.25;;;;;;;;;;5008762;28;20052;-64
2023/07/25 03:02:10;;;;;;;1.98;1.20;;;;;;;;;;5006239;28;20037;-65
2023/07/25 03:04:36;;;;;;;2.38;1.52;;;;;;;;;;5006232;28;20028;-65
2023/07/25 03:07:01;;;;;;;2.65;1.20;;;;;;;;;;5005838;28;20104;-65
2023/07/25 03:09:27;;;;;;;2.70;1.52;;;;;;;;;;5007774;28;20117;-64
2023/07/25 03:11:52;;;;;;;3.22;1.60;;;;;;;;;;5008606;28;20021;-65
2023/07/25 03:14:17;;;;;;;3.90;1.38;;;;;;;;;;5007997;28;20029;-65
2023/07/25 03:16:43;;;;;;;2.55;1.40;;;;;;;;;;5010385;28;20058;-65
2023/07/25 03:19:08;;;;;;;2.40;1.60;;;;;;;;;;5006152;28;20491;-64
2023/07/25 03:21:33;;;;;;;1.83;1.45;;;;;;;;;;5006765;28;20026;-63
2023/07/25 03:23:59;;;;;;;1.67;1.40;;;;;;;;;;5007999;28;20099;-64
2023/07/25 03:26:24;;;;;;;2.22;1.30;;;;;;;;;;5005926;28;20025;-64
2023/07/25 03:28:50;;;;;;;2.85;1.20;;;;;;;;;;5005362;28;20489;-64
2023/07/25 03:31:15;;;;;;;2.78;2.15;;;;;;;;;;5009289;28;20051;-64
2023/07/25 03:33:40;;;;;;;1.85;1.38;;;;;;;;;;5005132;28;20552;-64
2023/07/25 03:36:07;;;;;;;2.53;1.45;;;;;;;;;;5005540;28;20041;-64
2023/07/25 03:38:32;;;;;;;3.10;1.40;;;;;;;;;;5007029;28;20041;-64
2023/07/25 03:40:58;;;;;;;3.75;1.58;;;;;;;;;;5005943;28;20038;-64
2023/07/25 03:43:24;;;;;;;4.15;1.77;;;;;;;;;;5005208;28;20018;-64
2023/07/25 03:45:49;;;;;;;2.38;1.30;;;;;;;;;;5007589;28;20026;-64
2023/07/25 03:48:15;;;;;;;2.45;1.70;;;;;;;;;;5005481;28;20037;-64
2023/07/25 03:50:40;;;;;;;1.58;0.95;;;;;;;;;;5006533;28;20136;-64
2023/07/25 03:53:05;;;;;;;1.92;1.17;;;;;;;;;;5006690;28;20076;-63
2023/07/25 03:55:31;;;;;;;1.52;1.00;;;;;;;;;;5004868;28;20662;-63
2023/07/25 03:57:56;;;;;;;4.13;1.10;;;;;;;;;;5009615;28;20476;-64
2023/07/25 04:00:22;;;;;;;3.38;2.20;;;;;;;;;;5005234;28;20076;-62
2023/07/25 04:02:48;;;;;;;3.75;1.20;;;;;;;;;;5005076;28;20038;-63
2023/07/25 04:05:15;;;;;;;1.70;1.08;;;;;;;;;;5006531;28;20037;-64
2023/07/25 04:07:40;;;;;;;5.22;1.20;;;;;;;;;;5007168;28;20532;-64
2023/07/25 04:10:06;;;;;;;3.25;1.40;;;;;;;;;;5008395;28;20029;-63
2023/07/25 04:12:31;;;;;;;2.55;1.10;;;;;;;;;;5010384;28;20018;-64
2023/07/25 04:14:57;;;;;;;4.40;1.30;;;;;;;;;;5010562;28;20030;-63
2023/07/25 04:17:23;;;;;;;5.22;1.67;;;;;;;;;;5006530;28;20030;-64
2023/07/25 04:19:48;;;;;;;2.75;1.08;;;;;;;;;;5005928;28;20379;-63
2023/07/25 04:22:13;;;;;;;1.77;1.30;;;;;;;;;;5005026;28;21011;-64
2023/07/25 04:24:39;;;;;;;4.22;1.42;;;;;;;;;;5004691;28;20030;-64
2023/07/25 04:27:04;;;;;;;3.47;1.27;;;;;;;;;;5009211;28;20014;-63
2023/07/25 04:29:30;;;;;;;3.08;1.63;;;;;;;;;;5005366;28;20030;-64
2023/07/25 04:31:56;;;;;;;2.47;1.35;;;;;;;;;;5005976;28;20053;-63
2023/07/25 04:34:21;;;;;;;2.10;1.35;;;;;;;;;;5005444;28;20032;-64
2023/07/25 04:36:46;;;;;;;3.90;1.42;;;;;;;;;;5025408;23;20038;-64
2023/07/25 04:39:12;;;;;;;3.58;1.65;;;;;;;;;;5031418;28;20037;-64
2023/07/25 04:41:37;;;;;;;3.20;1.42;;;;;;;;;;5024559;28;20389;-65
2023/07/25 04:44:03;;;;;;;4.03;1.52;;;;;;;;;;5029542;28;20025;-65
2023/07/25 04:46:30;;;;;;;3.50;1.65;;;;;;;;;;5028099;28;20635;-66
2023/07/25 04:48:55;;;;;;;2.20;1.50;;;;;;;;;;5044551;28;20021;-65
2023/07/25 04:51:21;;;;;;;4.30;1.83;;;;;;;;;;5043734;28;20098;-65
2023/07/25 04:53:46;;;;;;;3.65;1.60;;;;;;;;;;5045145;28;20036;-64
2023/07/25 04:56:12;;;;;;;3.47;1.50;;;;;;;;;;5039471;28;20044;-64
2023/07/25 04:58:43;;;;;;;3.58;1.60;;;;;;;;;;5038254;28;20022;-65
2023/07/25 05:01:09;;;;;;;3.35;1.55;;;;;;;;;;5055012;28;20039;-65
2023/07/25 05:03:34;;;;;;;4.10;1.50;;;;;;;;;;5046552;28;20045;-65
2023/07/25 05:06:00;;;;;;;3.95;1.58;;;;;;;;;;5040320;28;20541;-65
2023/07/25 05:08:25;;;;;;;4.25;1.20;;;;;;;;;;5038968;28;20473;-65
2023/07/25 05:10:52;;;;;;;5.30;1.70;;;;;;;;;;5043635;28;20639;-64
2023/07/25 05:13:18;;;;;;;4.07;1.60;;;;;;;;;;5040141;28;20033;-65
2023/07/25 05:15:43;;;;;;;3.15;1.48;;;;;;;;;;5046713;28;20024;-64
2023/07/25 05:18:08;;;;;;;4.65;1.83;;;;;;;;;;5045953;28;20845;-65
2023/07/25 05:20:34;;;;;;;4.22;1.70;;;;;;;;;;5045129;28;20033;-65
2023/07/25 05:22:59;;;;;;;2.25;1.48;;;;;;;;;;5042191;28;20400;-65
2023/07/25 05:25:24;;;;;;;3.53;1.42;;;;;;;;;;5038276;28;20396;-65
2023/07/25 05:27:50;;;;;;;4.03;1.70;;;;;;;;;;5047076;28;20088;-65
2023/07/25 05:30:15;;;;;;;5.60;2.53;;;;;;;;;;5045562;28;20056;-65
2023/07/25 05:32:42;;;;;;;3.25;1.73;;;;;;;;;;5051119;28;20037;-65
2023/07/25 05:35:07;;;;;;;3.47;1.55;;;;;;;;;;5039685;28;20049;-65
2023/07/25 05:37:34;;;;;;;3.20;1.30;;;;;;;;;;5037517;28;20547;-65
2023/07/25 05:40:00;;;;;;;7.95;1.58;;;;;;;;;;5044668;28;20468;-65
2023/07/25 05:42:25;;;;;;;3.80;1.25;;;;;;;;;;5040787;28;20021;-65
2023/07/25 05:44:51;;;;;;;2.30;1.17;;;;;;;;;;5050877;28;20501;-65
2023/07/25 05:47:16;;;;;;;3.55;1.20;;;;;;;;;;5048498;28;20025;-66
2023/07/25 05:49:42;;;;;;;3.08;1.13;;;;;;;;;;5048477;28;20144;-66
2023/07/25 05:52:07;;;;;;;2.42;1.25;;;;;;;;;;5045721;28;20477;-65
2023/07/25 05:54:32;;;;;;;3.40;1.30;;;;;;;;;;5040428;28;20031;-64
2023/07/25 05:56:58;;;;;;;2.85;1.30;;;;;;;;;;5040851;28;20125;-65
2023/07/25 05:59:23;;;;;;;3.53;1.50;;;;;;;;;;5049031;28;20041;-65
2023/07/25 06:01:48;;;;;;;2.80;1.30;;;;;;;;;;5049382;28;20652;-65
2023/07/25 06:04:15;;;;;;;2.97;1.50;;;;;;;;;;5050237;28;20020;-64
2023/07/25 06:06:40;;;;;;;4.38;1.25;;;;;;;;;;5042503;28;20028;-65
2023/07/25 06:09:06;;;;;;;3.85;1.40;;;;;;;;;;5045614;28;20017;-64
2023/07/25 06:11:31;;;;;;;1.63;1.00;;;;;;;;;;5045128;28;20024;-64
2023/07/25 06:13:57;;;;;;;2.80;1.35;;;;;;;;;;5052693;28;20545;-64
2023/07/25 06:16:22;;;;;;;2.85;1.42;;;;;;;;;;5050720;28;20020;-64
2023/07/25 06:18:47;;;;;;;2.45;1.17;;;;;;;;;;5042750;28;20040;-65
2023/07/25 06:21:13;;;;;;;2.83;1.50;;;;;;;;;;5047667;28;20686;-64
2023/07/25 06:23:38;;;;;;;3.05;1.20;;;;;;;;;;5038332;28;20112;-65
2023/07/25 06:26:04;;;;;;;3.70;1.48;;;;;;;;;;5045388;28;20538;-65
2023/07/25 06:28:29;;;;;;;2.25;1.27;;;;;;;;;;5043710;28;20034;-64
2023/07/25 06:30:54;;;;;;;2.55;1.27;;;;;;;;;;5055086;28;20430;-64
2023/07/25 06:33:20;;;;;;;3.55;1.48;;;;;;;;;;5030339;28;20020;-65
2023/07/25 06:35:45;;;;;;;6.00;1.40;;;;;;;;;;5039994;28;20028;-65
2023/07/25 06:38:10;;;;;;;4.57;1.40;;;;;;;;;;5039071;28;20507;-65
2023/07/25 06:40:36;;;;;;;4.93;1.33;;;;;;;;;;5039121;28;20024;-65
2023/07/25 06:43:01;;;;;;;2.45;1.02;;;;;;;;;;5043642;28;20075;-66
2023/07/25 06:45:26;;;;;;;4.05;1.30;;;;;;;;;;5036626;28;20024;-65
2023/07/25 06:47:52;;;;;;;2.45;1.60;;;;;;;;;;5048615;28;20035;-66
2023/07/25 06:50:17;;;;;;;1.40;0.77;;;;;;;;;;5036800;28;20413;-66
2023/07/25 06:52:43;;;;;;;3.00;1.65;;;;;;;;;;5029922;28;20025;-66
2023/07/25 06:55:08;;;;;;;3.08;1.30;;;;;;;;;;5039263;28;20024;-65
2023/07/25 06:57:34;;;;;;;2.13;1.13;;;;;;;;;;5040064;28;20148;-65
2023/07/25 06:59:59;;;;;;;4.28;1.35;;;;;;;;;;5050997;28;20049;-66
2023/07/25 07:02:25;;;;;;;5.13;1.75;;;;;;;;;;5042710;28;20189;-64
2023/07/25 07:04:50;;;;;;;2.88;1.08;;;;;;;;;;5034985;28;20038;-65
2023/07/25 07:07:15;;;;;;;3.83;1.20;;;;;;;;;;5035529;28;20013;-65
2023/07/25 07:09:41;;;;;;;3.35;1.20;;;;;;;;;;5033762;28;20021;-65
2023/07/25 07:12:07;;;;;;;2.03;1.10;;;;;;;;;;5041307;28;20781;-65
2023/07/25 07:14:32;;;;;;;3.63;1.15;;;;;;;;;;5046960;28;20017;-65
2023/07/25 07:16:58;;;;;;;4.78;1.50;;;;;;;;;;5043792;28;20037;-65
2023/07/25 07:19:23;;;;;;;5.90;1.20;;;;;;;;;;5042778;28;20241;-65
2023/07/25 07:21:48;;;;;;;3.17;1.17;;;;;;;;;;5041799;28;20039;-66
2023/07/25 07:24:14;;;;;;;4.32;1.63;;;;;;;;;;5038633;28;20094;-65
2023/07/25 07:26:39;;;;;;;2.05;1.02;;;;;;;;;;5041406;28;20032;-66
2023/07/25 07:29:05;;;;;;;2.58;1.13;;;;;;;;;;5048987;28;20017;-65
2023/07/25 07:31:30;;;;;;;2.70;1.40;;;;;;;;;;5042098;28;20764;-65
2023/07/25 07:34:14;;;;;;;5.65;1.40;;;;;;;;;;5036634;28;20067;-65
2023/07/25 07:36:42;;;;;;;2.40;1.40;;;;;;;;;;5040482;28;20026;-66
2023/07/25 07:39:08;;;;;;;3.35;1.33;;;;;;;;;;5038828;28;20135;-65
2023/07/25 07:41:34;;;;;;;4.05;1.40;;;;;;;;;;5043349;28;20051;-65
2023/07/25 07:44:00;;;;;;;4.82;1.30;;;;;;;;;;5035600;28;20119;-66
2023/07/25 07:46:32;;;;;;;2.33;1.30;;;;;;;;;;5030414;28;20104;-65
2023/07/25 07:48:58;;;;;;;3.85;1.33;;;;;;;;;;5042325;28;20029;-65
2023/07/25 07:51:24;;;;;;;4.28;1.45;;;;;;;;;;5037689;28;20064;-65
2023/07/25 07:53:50;;;;;;;3.45;1.20;;;;;;;;;;5038431;28;20056;-65
2023/07/25 07:56:16;;;;;;;2.97;1.30;;;;;;;;;;5038856;28;20021;-65
2023/07/25 07:58:41;;;;;;;2.13;1.10;;;;;;;;;;5042615;28;20028;-65
2023/07/25 08:01:17;;;;;;;3.10;1.35;;;;;;;;;;5043398;28;20039;-66
2023/07/25 08:03:43;;;;;;;4.70;1.30;;;;;;;;;;5040904;28;20052;-65
2023/07/25 08:06:09;;;;;;;6.53;1.45;;;;;;;;;;5038284;28;20021;-65
2023/07/25 08:08:34;;;;;;;5.75;1.38;;;;;;;;;;5036978;28;20028;-65
2023/07/25 08:11:00;;;;;;;4.03;1.38;;;;;;;;;;5046076;28;20512;-65
2023/07/25 08:13:25;;;;;;;4.80;1.73;;;;;;;;;;5045494;28;20024;-65
2023/07/25 08:15:50;;;;;;;4.13;1.50;;;;;;;;;;5041071;28;20082;-65
2023/07/25 08:18:16;;;;;;;5.10;1.38;;;;;;;;;;5037660;28;20035;-65
2023/07/25 08:20:42;;;;;;;3.80;1.42;;;;;;;;;;5036856;28;20056;-65
2023/07/25 08:23:07;;;;;;;3.08;1.40;;;;;;;;;;5041345;28;20454;-65
2023/07/25 08:25:33;;;;;;;4.43;1.33;;;;;;;;;;5042015;28;20024;-64
2023/07/25 08:27:58;;;;;;;3.65;1.77;;;;;;;;;;5048899;28;20078;-65
2023/07/25 08:30:23;;;;;;;4.70;1.60;;;;;;;;;;5041933;28;20041;-66
2023/07/25 08:32:49;;;;;;;4.35;1.23;;;;;;;;;;5041824;28;20043;-65
2023/07/25 08:35:14;;;;;;;3.15;0.90;;;;;;;;;;5045717;28;20021;-66
2023/07/25 08:37:40;;;;;;;3.10;1.48;;;;;;;;;;5043145;28;20803;-65
2023/07/25 08:40:06;;;;;;;4.57;1.42;;;;;;;;;;5051467;28;20020;-65
2023/07/25 08:42:32;;;;;;;5.75;1.40;;;;;;;;;;5044291;28;20112;-65
2023/07/25 08:44:59;;;;;;;1.92;1.30;;;;;;;;;;5045141;28;20119;-65
2023/07/25 08:47:28;;;;;;;4.63;1.40;;;;;;;;;;5041038;28;20072;-65
2023/07/25 08:49:56;;;;;;;4.95;1.50;;;;;;;;;;5042361;28;20116;-65
2023/07/25 08:52:26;;;;;;;3.05;1.38;;;;;;;;;;5038720;28;20524;-65
2023/07/25 08:54:52;;;;;;;2.60;1.13;;;;;;;;;;5046483;28;20029;-65
2023/07/25 08:57:18;;;;;;;4.28;1.50;;;;;;;;;;5041465;28;20025;-65
2023/07/25 08:59:46;;;;;;;4.32;1.42;;;;;;;;;;5048036;28;20029;-65
2023/07/25 09:02:12;;;;;;;2.97;1.17;;;;;;;;;;5041440;28;20036;-65
2023/07/25 09:04:38;;;;;;;2.13;0.77;;;;;;;;;;5038685;28;20031;-65
2023/07/25 09:07:05;;;;;;;3.38;1.40;;;;;;;;;;5034578;28;20040;-65
2023/07/25 09:09:31;;;;;;;3.42;1.10;;;;;;;;;;5043617;28;20059;-65
2023/07/25 09:11:56;;;;;;;2.70;1.30;;;;;;;;;;5046654;28;20474;-65
2023/07/25 09:14:21;;;;;;;2.60;1.13;;;;;;;;;;5043959;28;20040;-65
2023/07/25 09:16:47;;;;;;;2.50;1.33;;;;;;;;;;5046014;28;20100;-65
2023/07/25 09:19:13;;;;;;;3.13;1.20;;;;;;;;;;5037863;28;20021;-65
2023/07/25 09:21:49;;;;;;;2.97;1.20;;;;;;;;;;5041071;28;20061;-65
2023/07/25 09:24:15;;;;;;;3.22;1.23;;;;;;;;;;5041799;28;20663;-65
2023/07/25 09:26:46;;;;;;;2.13;1.20;;;;;;;;;;5049391;28;20136;-65
2023/07/25 09:29:12;;;;;;;2.83;1.05;;;;;;;;;;5040536;28;20099;-65
2023/07/25 09:31:43;;;;;;;2.80;1.45;;;;;;;;;;5040874;28;20671;-65
2023/07/25 09:34:14;;;;;;;12.82;2.47;;;;;;;;;;5039177;28;20049;-65
2023/07/25 09:36:44;;;;;;;4.97;1.20;;;;;;;;;;5036484;28;20519;-65
2023/07/25 09:39:09;;;;;;;2.55;1.30;;;;;;;;;;5035995;28;20040;-65
2023/07/25 09:41:35;;;;;;;2.58;1.48;;;;;;;;;;5045436;28;20028;-64
2023/07/25 09:44:05;;;;;;;3.38;1.40;;;;;;;;;;5040704;28;20029;-64
2023/07/25 09:46:31;;;;;;;2.25;1.30;;;;;;;;;;5038796;28;20047;-64
2023/07/25 09:48:57;;;;;;;2.97;1.23;;;;;;;;;;5042237;28;20040;-64
2023/07/25 09:51:22;;;;;;;2.78;1.60;;;;;;;;;;5034650;28;20082;-64
2023/07/25 09:53:51;;;;;;;3.22;1.42;;;;;;;;;;5040717;28;20029;-64
2023/07/25 09:56:16;;;;;;;3.95;1.30;;;;;;;;;;5042885;28;20025;-64
2023/07/25 09:58:42;;;;;;;4.05;1.33;;;;;;;;;;5045918;28;20513;-64
2023/07/25 10:01:09;;;;;;;3.58;1.35;;;;;;;;;;5043640;28;20036;-64
2023/07/25 10:03:35;;;;;;;3.03;1.30;;;;;;;;;;5038187;28;20043;-64
2023/07/25 10:06:02;;;;;;;4.15;1.30;;;;;;;;;;5038514;28;20021;-64
2023/07/25 10:08:27;;;;;;;4.40;2.00;;;;;;;;;;5041231;28;20124;-64
2023/07/25 10:10:56;;;;;;;2.55;1.10;;;;;;;;;;5046062;28;20497;-64
2023/07/25 10:13:23;;;;;;;4.75;1.08;;;;;;;;;;5039870;28;20031;-64
2023/07/25 10:15:50;;;;;;;2.45;1.20;;;;;;;;;;5045189;28;20705;-64
2023/07/25 10:18:24;;;;;;;3.10;1.42;;;;;;;;;;5042773;28;20029;-64
2023/07/25 10:20:51;;;;;;;3.17;1.23;;;;;;;;;;5043021;28;20053;-64
2023/07/25 10:23:16;;;;;;;3.10;1.30;;;;;;;;;;5041004;28;20033;-64
2023/07/25 10:25:42;;;;;;;2.65;1.35;;;;;;;;;;5048472;28;20016;-64
2023/07/25 10:28:08;;;;;;;4.18;1.20;;;;;;;;;;5045122;28;20020;-64
2023/07/25 10:30:44;;;;;;;2.55;1.17;;;;;;;;;;5039145;28;20031;-64
2023/07/25 10:33:12;;;;;;;1.38;0.98;;;;;;;;;;5038708;28;20017;-64
2023/07/25 10:35:49;;;;;;;3.10;1.20;;;;;;;;;;5033907;28;20026;-64
2023/07/25 10:41:13;;;;;;;5.22;1.65;;;;;;;;;;4988294;28;20046;-63
2023/07/25 10:43:45;;;;;;;4.15;1.13;;;;;;;;;;4992097;28;20091;-63
2023/07/25 10:46:30;;;;;;;4.18;1.40;;;;;;;;;;4990826;28;20714;-63
2023/07/25 10:49:02;;;;;;;4.85;1.70;;;;;;;;;;4990797;28;20085;-63
2023/07/25 10:51:53;;;;;;;2.88;1.17;;;;;;;;;;4988953;28;20397;-63
2023/07/25 10:54:20;;;;;;;5.22;1.30;;;;;;;;;;4991019;28;20134;-63
2023/07/25 10:57:13;;;;;;;2.92;1.08;;;;;;;;;;4986529;28;20034;-63
2023/07/25 11:00:11;;;;;;;4.43;1.42;;;;;;;;;;4990792;28;20026;-63
2023/07/25 11:02:43;;;;;;;3.03;1.40;;;;;;;;;;4974593;28;20085;-63
2023/07/25 11:05:11;;;;;;;5.50;1.50;;;;;;;;;;4986070;28;20026;-63
2023/07/25 11:07:38;;;;;;;6.47;1.35;;;;;;;;;;4992953;28;20061;-63
2023/07/25 11:10:04;;;;;;;4.10;1.33;;;;;;;;;;4993791;28;20498;-63
2023/07/25 11:12:30;;;;;;;4.65;1.50;;;;;;;;;;4991650;28;20060;-63
2023/07/25 11:14:55;;;;;;;3.20;1.33;;;;;;;;;;4990121;28;20045;-64
2023/07/25 11:17:27;;;;;;;4.68;1.48;;;;;;;;;;4992091;28;20038;-64
2023/07/25 11:19:52;;;;;;;2.72;1.20;;;;;;;;;;4994596;28;20087;-64
2023/07/25 11:22:18;;;;;;;5.60;1.77;;;;;;;;;;4987368;28;20080;-65
2023/07/25 11:24:45;;;;;;;5.13;1.67;;;;;;;;;;4994313;28;20056;-65
2023/07/25 11:27:12;;;;;;;3.83;1.65;;;;;;;;;;4989619;28;20085;-66
2023/07/25 11:29:37;;;;;;;3.20;1.70;;;;;;;;;;4993686;28;20025;-66
2023/07/25 11:32:03;;;;;;;3.47;1.52;;;;;;;;;;4988846;28;20809;-65
2023/07/25 11:34:29;;;;;;;3.45;1.67;;;;;;;;;;4999144;28;20065;-65
2023/07/25 11:36:54;;;;;;;2.83;1.42;;;;;;;;;;4991156;28;20022;-65
2023/07/25 11:39:22;;;;;;;2.67;1.30;;;;;;;;;;4987287;28;20049;-65
2023/07/25 11:41:47;;;;;;;3.83;1.20;;;;;;;;;;4989888;28;20038;-66
2023/07/25 11:44:15;;;;;;;3.28;1.27;;;;;;;;;;4993177;28;20080;-66
2023/07/25 11:46:44;;;;;;;3.20;1.23;;;;;;;;;;5002785;28;20014;-65
2023/07/25 11:49:14;;;;;;;4.00;1.45;;;;;;;;;;4990104;28;20359;-65
2023/07/25 11:51:40;;;;;;;3.45;1.27;;;;;;;;;;4989419;28;20042;-65
2023/07/25 11:54:06;;;;;;;3.80;1.63;;;;;;;;;;4994623;28;20749;-65
2023/07/25 11:56:33;;;;;;;4.93;1.25;;;;;;;;;;4991283;28;20030;-65
2023/07/25 11:58:59;;;;;;;4.50;1.30;;;;;;;;;;4992780;28;20042;-64
2023/07/25 12:01:29;;;;;;;3.45;1.50;;;;;;;;;;4988236;28;20030;-64
2023/07/25 12:03:55;;;;;;;3.87;1.33;;;;;;;;;;4992305;28;20440;-65
2023/07/25 12:06:28;;;;;;;4.82;1.50;;;;;;;;;;4990277;28;20097;-64
2023/07/25 12:08:54;;;;;;;4.00;1.83;;;;;;;;;;4997491;28;20045;-64
2023/07/25 12:11:19;;;;;;;4.75;1.63;;;;;;;;;;4991050;28;20510;-64
2023/07/25 12:13:50;;;;;;;2.55;1.38;;;;;;;;;;4989441;28;20114;-64
2023/07/25 12:16:34;;;;;;;7.18;2.00;;;;;;;;;;4988877;28;20022;-65
2023/07/25 12:19:13;;;;;;;2.22;1.30;;;;;;;;;;4987575;28;20030;-64
2023/07/25 12:21:40;;;;;;;2.85;1.42;;;;;;;;;;4991685;28;20018;-64
2023/07/25 12:24:08;;;;;;;2.70;1.50;;;;;;;;;;4988273;28;20231;-64
2023/07/25 12:26:47;;;;;;;3.10;1.52;;;;;;;;;;4987154;28;20777;-64
2023/07/25 12:29:17;;;;;;;4.15;1.60;;;;;;;;;;4994946;28;20061;-64
2023/07/25 12:31:43;;;;;;;4.23;1.50;;;;;;;;;;4990593;28;20116;-64
2023/07/25 12:34:08;;;;;;;2.22;1.30;;;;;;;;;;4985144;28;20370;-64
2023/07/25 12:36:33;;;;;;;3.05;1.40;;;;;;;;;;4989521;28;20111;-64
2023/07/25 12:38:59;;;;;;;4.22;1.70;;;;;;;;;;4991220;28;20490;-64
2023/07/25 12:41:24;;;;;;;3.10;1.40;;;;;;;;;;4990563;28;20054;-64
2023/07/25 12:43:50;;;;;;;4.80;1.80;;;;;;;;;;4997723;28;20042;-64
2023/07/25 12:46:15;;;;;;;3.97;1.40;;;;;;;;;;4976341;28;20112;-63
2023/07/25 12:48:41;;;;;;;3.35;1.52;;;;;;;;;;4985640;28;20068;-64
2023/07/25 12:51:06;;;;;;;5.38;1.30;;;;;;;;;;4986785;28;20038;-63
2023/07/25 12:53:32;;;;;;;2.17;1.52;;;;;;;;;;4985307;28;20129;-63
2023/07/25 12:55:57;;;;;;;2.88;1.38;;;;;;;;;;4987114;28;20034;-63
2023/07/25 12:58:23;;;;;;;3.33;1.40;;;;;;;;;;4988411;28;20038;-63
2023/07/25 13:00:50;;;;;;;4.57;1.50;;;;;;;;;;4986526;28;20046;-63
2023/07/25 13:03:20;;;;;;;6.30;1.50;;;;;;;;;;4986376;28;20475;-63
2023/07/25 13:05:46;;;;;;;4.63;1.50;;;;;;;;;;4989966;28;20525;-64
2023/07/25 13:08:11;;;;;;;3.47;1.60;;;;;;;;;;4983926;28;20109;-63
2023/07/25 13:10:36;;;;;;;2.75;1.40;;;;;;;;;;4979183;28;20062;-64
2023/07/25 13:53:40;;;;;;;;;;;;;;;;;;4988803;28;20843;-65
2023/07/25 13:56:05;;;;;;;4.97;1.40;;;;;;;;;;4981237;28;20558;-65
2023/07/25 13:58:31;;;;;;;2.65;1.20;;;;;;;;;;4986964;28;20080;-64
2023/07/25 14:00:56;;;;;;;2.95;1.35;;;;;;;;;;4986361;28;20030;-65
2023/07/25 14:03:22;;;;;;;5.45;1.23;;;;;;;;;;4987204;28;20375;-64
2023/07/25 14:05:47;;;;;;;3.05;1.10;;;;;;;;;;4982253;28;20045;-64
2023/07/25 14:08:12;;;;;;;3.30;1.60;;;;;;;;;;4987832;28;20026;-64
2023/07/25 14:10:42;;;;;;;2.85;1.50;;;;;;;;;;4998785;28;20030;-64
2023/07/25 14:13:08;;;;;;;2.92;1.05;;;;;;;;;;4985619;28;20482;-64
2023/07/25 14:15:34;;;;;;;5.38;1.50;;;;;;;;;;4988995;28;20064;-66
2023/07/25 14:18:00;;;;;;;2.67;1.23;;;;;;;;;;4990729;28;20053;-65
2023/07/25 14:20:26;;;;;;;2.78;1.25;;;;;;;;;;4989697;28;20652;-65
2023/07/25 14:22:51;;;;;;;3.88;1.20;;;;;;;;;;4983525;28;20032;-65
2023/07/25 14:25:17;;;;;;;2.58;1.30;;;;;;;;;;4984762;28;20033;-65
2023/07/25 14:27:43;;;;;;;4.55;1.38;;;;;;;;;;4987591;28;20030;-64
2023/07/25 14:30:09;;;;;;;1.83;1.00;;;;;;;;;;4979185;28;20482;-63
2023/07/25 14:32:35;;;;;;;2.88;1.00;;;;;;;;;;4983430;28;20034;-65
2023/07/25 14:35:00;;;;;;;4.63;2.17;;;;;;;;;;4987812;28;20026;-65
2023/07/25 14:37:26;;;;;;;3.13;1.30;;;;;;;;;;4987618;28;20099;-63
2023/07/25 14:39:54;;;;;;;2.72;1.38;;;;;;;;;;4984810;28;20515;-65
2023/07/25 14:42:19;;;;;;;2.75;1.30;;;;;;;;;;4983548;28;20121;-65
2023/07/25 14:44:45;;;;;;;2.65;1.40;;;;;;;;;;4983613;28;20109;-65
2023/07/25 14:47:10;;;;;;;3.80;1.33;;;;;;;;;;4986393;28;20022;-65
2023/07/25 14:49:35;;;;;;;3.60;1.38;;;;;;;;;;4987957;28;20450;-65
2023/07/25 14:52:01;;;;;;;4.15;1.60;;;;;;;;;;4990019;28;20040;-64
2023/07/25 14:54:28;;;;;;;2.58;1.30;;;;;;;;;;4984504;28;20161;-64
2023/07/25 14:56:53;;;;;;;4.40;1.48;;;;;;;;;;4988592;28;20030;-64
2023/07/25 14:59:19;;;;;;;2.28;1.20;;;;;;;;;;4985503;28;20052;-66
2023/07/25 15:01:44;;;;;;;3.15;1.52;;;;;;;;;;4987919;28;20445;-64
2023/07/25 15:04:10;;;;;;;3.78;1.33;;;;;;;;;;4989834;28;20045;-64
2023/07/25 15:06:35;;;;;;;2.85;1.52;;;;;;;;;;4990074;28;20022;-64
2023/07/25 15:09:00;;;;;;;5.15;1.67;;;;;;;;;;4986408;28;20029;-64
2023/07/25 15:11:26;;;;;;;3.75;1.58;;;;;;;;;;4983143;28;20537;-64
2023/07/25 15:13:52;;;;;;;2.63;1.15;;;;;;;;;;4986275;28;20026;-64
2023/07/25 15:16:17;;;;;;;2.70;1.50;;;;;;;;;;4984269;28;20026;-64
2023/07/25 15:18:43;;;;;;;4.28;1.60;;;;;;;;;;4988048;28;20030;-64
2023/07/25 15:21:09;;;;;;;3.92;1.63;;;;;;;;;;4986258;28;20029;-64
2023/07/25 15:23:35;;;;;;;2.95;1.40;;;;;;;;;;4973178;28;20042;-62